createdAt,value
2022-07-30T00:00:25.084Z,20.67
2022-07-30T00:02:30.019Z,20.61
2022-07-30T00:04:33.502Z,20.54
2022-07-30T00:06:37.836Z,20.48
2022-07-30T00:08:40.909Z,20.46
2022-07-30T00:10:44.071Z,20.45
2022-07-30T00:12:49.070Z,20.43
2022-07-30T00:14:52.294Z,20.42
2022-07-30T00:16:55.595Z,20.42
2022-07-30T00:19:00.135Z,20.40
2022-07-30T00:21:03.167Z,20.34
2022-07-30T00:23:06.355Z,20.32
2022-07-30T00:25:10.115Z,20.29
2022-07-30T00:27:14.460Z,20.23
2022-07-30T00:29:17.631Z,20.20
2022-07-30T00:31:20.726Z,20.19
2022-07-30T00:33:24.073Z,20.18
2022-07-30T00:35:28.845Z,20.17
2022-07-30T00:37:31.915Z,20.14
2022-07-30T00:39:34.980Z,20.12
2022-07-30T00:41:56.469Z,20.05
2022-07-30T00:43:59.996Z,20.02
2022-07-30T00:46:03.199Z,20.02
2022-07-30T00:48:07.134Z,20.00
2022-07-30T00:50:11.571Z,19.97
2022-07-30T00:52:16.110Z,19.90
2022-07-30T00:54:19.427Z,19.87
2022-07-30T00:56:23.039Z,19.84
2022-07-30T00:58:26.179Z,19.83
2022-07-30T01:00:29.669Z,19.78
2022-07-30T01:02:34.319Z,19.74
2022-07-30T01:04:37.460Z,19.69
2022-07-30T01:06:40.899Z,19.65
2022-07-30T01:08:45.505Z,19.60
2022-07-30T01:10:48.609Z,19.59
2022-07-30T01:12:52.733Z,19.57
2022-07-30T01:14:58.796Z,19.53
2022-07-30T01:17:02.489Z,19.50
2022-07-30T01:19:26.376Z,19.48
2022-07-30T01:21:33.510Z,19.41
2022-07-30T01:23:43.216Z,19.35
2022-07-30T01:25:54.471Z,19.29
2022-07-30T01:28:01.488Z,19.27
2022-07-30T01:30:07.379Z,19.25
2022-07-30T01:32:12.243Z,19.23
2022-07-30T01:34:17.352Z,19.23
2022-07-30T01:36:22.870Z,19.18
2022-07-30T01:38:27.104Z,19.11
2022-07-30T01:40:35.384Z,19.09
2022-07-30T01:42:41.478Z,19.08
2022-07-30T01:44:45.645Z,19.06
2022-07-30T01:46:50.104Z,19.03
2022-07-30T01:48:54.921Z,19.01
2022-07-30T01:51:04.244Z,19.01
2022-07-30T01:53:08.581Z,18.96
2022-07-30T01:55:17.152Z,18.91
2022-07-30T01:57:21.009Z,18.84
2022-07-30T01:59:26.674Z,18.80
2022-07-30T02:01:29.871Z,18.80
2022-07-30T02:03:36.131Z,18.77
2022-07-30T02:05:39.883Z,18.76
2022-07-30T02:07:48.968Z,18.75
2022-07-30T02:09:55.644Z,18.71
2022-07-30T02:12:17.534Z,18.73
2022-07-30T02:14:23.366Z,18.76
2022-07-30T02:16:30.713Z,18.73
2022-07-30T02:18:39.591Z,18.70
2022-07-30T02:20:48.746Z,18.69
2022-07-30T02:22:56.745Z,18.68
2022-07-30T02:25:01.693Z,18.70
2022-07-30T02:27:11.601Z,18.71
2022-07-30T02:29:18.149Z,18.70
2022-07-30T02:31:26.508Z,18.68
2022-07-30T02:33:36.104Z,18.66
2022-07-30T02:35:52.054Z,18.63
2022-07-30T02:37:55.980Z,18.59
2022-07-30T02:39:59.512Z,18.55
2022-07-30T02:42:03.510Z,18.50
2022-07-30T02:44:07.300Z,18.48
2022-07-30T02:46:11.419Z,18.48
2022-07-30T02:48:37.434Z,18.47
2022-07-30T02:50:40.728Z,18.47
2022-07-30T02:52:44.596Z,18.45
2022-07-30T02:54:49.245Z,18.44
2022-07-30T02:56:53.136Z,18.45
2022-07-30T02:58:57.245Z,18.45
2022-07-30T03:01:01.577Z,18.45
2022-07-30T03:03:07.200Z,18.46
2022-07-30T03:05:15.957Z,18.47
2022-07-30T03:07:19.963Z,18.48
2022-07-30T03:09:23.200Z,18.48
2022-07-30T03:11:28.204Z,18.48
2022-07-30T03:13:31.564Z,18.44
2022-07-30T03:15:39.481Z,18.41
2022-07-30T03:17:45.734Z,18.39
2022-07-30T03:19:49.810Z,18.40
2022-07-30T03:21:57.539Z,18.38
2022-07-30T03:24:03.299Z,18.38
2022-07-30T03:26:09.521Z,18.35
2022-07-30T03:28:13.824Z,18.33
2022-07-30T03:30:17.994Z,18.29
2022-07-30T03:32:21.288Z,18.25
2022-07-30T03:34:29.755Z,18.20
2022-07-30T03:36:33.322Z,18.17
2022-07-30T03:38:39.223Z,18.14
2022-07-30T03:40:43.123Z,18.07
2022-07-30T03:42:46.751Z,18.03
2022-07-30T03:44:53.440Z,18.00
2022-07-30T03:46:59.367Z,17.99
2022-07-30T03:49:03.290Z,18.02
2022-07-30T03:51:10.045Z,18.06
2022-07-30T03:53:15.284Z,18.05
2022-07-30T03:55:45.609Z,18.04
2022-07-30T03:58:07.801Z,18.09
2022-07-30T04:00:15.319Z,18.08
2022-07-30T04:02:23.998Z,18.04
2022-07-30T04:04:47.470Z,17.94
2022-07-30T04:06:50.709Z,17.91
2022-07-30T04:08:55.628Z,17.90
2022-07-30T04:11:00.291Z,17.92
2022-07-30T04:13:34.714Z,17.96
2022-07-30T04:16:37.887Z,17.99
2022-07-30T04:18:12.511Z,17.99
2022-07-30T04:20:18.780Z,17.98
2022-07-30T04:22:27.975Z,17.95
2022-07-30T04:24:32.653Z,17.93
2022-07-30T04:26:39.105Z,17.93
2022-07-30T04:28:42.550Z,17.96
2022-07-30T04:30:47.282Z,17.99
2022-07-30T04:32:50.731Z,18.02
2022-07-30T04:35:12.504Z,18.05
2022-07-30T04:37:55.986Z,18.01
2022-07-30T04:39:59.089Z,18.04
2022-07-30T04:42:03.597Z,18.06
2022-07-30T04:44:13.597Z,18.10
2022-07-30T04:46:26.072Z,18.13
2022-07-30T04:48:30.570Z,18.17
2022-07-30T04:50:48.501Z,18.19
2022-07-30T04:52:55.697Z,18.18
2022-07-30T04:55:06.763Z,18.22
2022-07-30T04:57:12.341Z,18.24
2022-07-30T04:59:16.065Z,18.24
2022-07-30T05:01:24.110Z,18.25
2022-07-30T05:03:41.358Z,18.29
2022-07-30T05:05:44.702Z,18.31
2022-07-30T05:07:47.956Z,18.35
2022-07-30T05:09:51.510Z,18.38
2022-07-30T05:11:56.171Z,18.41
2022-07-30T05:14:01.262Z,18.45
2022-07-30T05:16:04.706Z,18.47
2022-07-30T05:18:08.771Z,18.51
2022-07-30T05:20:15.575Z,18.55
2022-07-30T05:22:37.777Z,18.60
2022-07-30T05:24:47.878Z,18.69
2022-07-30T05:26:51.193Z,18.78
2022-07-30T05:28:56.944Z,18.87
2022-07-30T05:31:15.233Z,18.97
2022-07-30T05:33:42.286Z,19.05
2022-07-30T05:35:49.271Z,19.15
2022-07-30T05:37:52.430Z,19.26
2022-07-30T05:39:57.451Z,19.42
2022-07-30T05:42:26.550Z,19.70
2022-07-30T05:44:33.382Z,20.03
2022-07-30T05:46:37.931Z,20.33
2022-07-30T05:48:41.152Z,20.65
2022-07-30T05:50:44.344Z,20.91
2022-07-30T05:52:47.482Z,21.18
2022-07-30T05:55:11.605Z,21.49
2022-07-30T05:57:29.750Z,21.77
2022-07-30T05:59:33.749Z,22.03
2022-07-30T06:02:03.302Z,22.32
2022-07-30T06:04:25.138Z,22.62
2022-07-30T06:06:34.497Z,22.85
2022-07-30T06:08:37.850Z,23.04
2022-07-30T06:10:41.496Z,23.24
2022-07-30T06:12:47.761Z,23.51
2022-07-30T06:14:52.805Z,23.74
2022-07-30T06:17:03.708Z,24.02
2022-07-30T06:19:24.018Z,24.29
2022-07-30T06:21:27.124Z,24.50
2022-07-30T06:23:42.194Z,24.66
2022-07-30T06:25:59.767Z,24.81
2022-07-30T06:28:20.898Z,24.95
2022-07-30T06:30:31.376Z,25.09
2022-07-30T06:32:37.156Z,25.26
2022-07-30T06:34:40.741Z,25.40
2022-07-30T06:36:44.293Z,25.57
2022-07-30T06:39:05.535Z,25.70
2022-07-30T06:41:27.287Z,25.86
2022-07-30T06:43:34.472Z,26.02
2022-07-30T06:46:06.515Z,26.19
2022-07-30T06:48:16.242Z,26.36
2022-07-30T06:50:20.348Z,26.52
2022-07-30T06:52:23.684Z,26.67
2022-07-30T06:54:28.900Z,26.83
2022-07-30T06:56:34.728Z,26.97
2022-07-30T06:58:40.922Z,27.11
2022-07-30T07:01:02.539Z,27.14
2022-07-30T07:03:11.520Z,27.25
2022-07-30T07:05:16.423Z,27.35
2022-07-30T07:07:40.306Z,27.44
2022-07-30T07:09:45.782Z,27.63
2022-07-30T07:12:11.507Z,27.75
2022-07-30T07:14:17.408Z,27.86
2022-07-30T07:16:21.741Z,27.97
2022-07-30T07:18:25.734Z,28.11
2022-07-30T07:20:38.293Z,28.22
2022-07-30T07:22:43.996Z,28.39
2022-07-30T07:24:49.116Z,28.50
2022-07-30T07:26:57.299Z,28.60
2022-07-30T07:29:04.964Z,28.70
2022-07-30T07:31:09.554Z,28.78
2022-07-30T07:33:13.378Z,28.91
2022-07-30T07:35:20.264Z,28.97
2022-07-30T07:37:27.135Z,29.03
2022-07-30T07:39:31.462Z,28.97
2022-07-30T07:41:48.183Z,29.12
2022-07-30T07:43:54.158Z,29.29
2022-07-30T07:46:06.720Z,29.44
2022-07-30T07:48:11.783Z,29.42
2022-07-30T07:50:27.049Z,29.49
2022-07-30T07:52:31.663Z,29.46
2022-07-30T07:54:34.820Z,29.55
2022-07-30T07:56:37.976Z,29.63
2022-07-30T07:58:42.986Z,29.72
2022-07-30T08:00:48.558Z,29.86
2022-07-30T08:02:53.434Z,29.95
2022-07-30T08:04:56.754Z,29.96
2022-07-30T08:07:21.523Z,29.94
2022-07-30T08:09:52.017Z,29.98
2022-07-30T08:12:13.898Z,30.06
2022-07-30T08:14:39.974Z,30.19
2022-07-30T08:17:09.590Z,30.31
2022-07-30T08:19:33.004Z,30.42
2022-07-30T08:21:53.177Z,30.44
2022-07-30T08:23:56.457Z,30.52
2022-07-30T08:26:02.119Z,30.55
2022-07-30T08:28:05.405Z,30.57
2022-07-30T08:30:10.289Z,30.61
2022-07-30T08:32:14.594Z,30.64
2022-07-30T08:34:20.344Z,30.69
2022-07-30T08:36:29.136Z,30.74
2022-07-30T08:38:32.424Z,30.75
2022-07-30T08:40:36.562Z,30.81
2022-07-30T08:42:42.220Z,30.75
2022-07-30T08:44:46.416Z,30.63
2022-07-30T08:46:53.019Z,30.62
2022-07-30T08:49:16.738Z,30.73
2022-07-30T08:51:21.030Z,30.83
2022-07-30T08:53:43.307Z,30.93
2022-07-30T08:55:46.549Z,30.81
2022-07-30T08:57:51.075Z,30.75
2022-07-30T09:00:00.403Z,30.80
2022-07-30T09:02:07.795Z,30.95
2022-07-30T09:04:23.645Z,31.18
2022-07-30T09:06:29.284Z,31.26
2022-07-30T09:08:33.440Z,31.22
2022-07-30T09:10:37.463Z,31.24
2022-07-30T09:12:41.576Z,30.93
2022-07-30T09:15:02.817Z,30.72
2022-07-30T09:17:06.946Z,30.76
2022-07-30T09:19:15.349Z,30.60
2022-07-30T09:21:20.850Z,30.55
2022-07-30T09:23:28.177Z,30.64
2022-07-30T09:25:51.927Z,30.53
2022-07-30T09:28:15.825Z,30.00
2022-07-30T09:30:48.183Z,29.63
2022-07-30T09:33:09.644Z,29.29
2022-07-30T09:35:36.190Z,29.24
2022-07-30T09:37:48.592Z,29.19
2022-07-30T09:40:16.666Z,29.51
2022-07-30T09:42:45.749Z,29.76
2022-07-30T09:44:51.244Z,29.48
2022-07-30T09:46:55.973Z,29.34
2022-07-30T09:49:15.892Z,29.55
2022-07-30T09:51:23.841Z,29.41
2022-07-30T09:53:55.856Z,29.25
2022-07-30T09:56:04.397Z,28.85
2022-07-30T09:58:08.236Z,28.72
2022-07-30T10:00:24.019Z,28.55
2022-07-30T10:02:50.429Z,28.98
2022-07-30T10:05:14.893Z,29.41
2022-07-30T10:07:25.657Z,29.67
2022-07-30T10:09:31.848Z,29.45
2022-07-30T10:11:35.214Z,29.42
2022-07-30T10:13:43.910Z,29.38
2022-07-30T10:15:50.725Z,29.46
2022-07-30T10:17:55.383Z,29.68
2022-07-30T10:20:22.689Z,29.64
2022-07-30T10:22:46.675Z,29.62
2022-07-30T10:25:11.344Z,29.85
2022-07-30T10:27:41.204Z,29.57
2022-07-30T10:29:57.454Z,29.54
2022-07-30T10:32:01.992Z,29.61
2022-07-30T10:34:06.401Z,29.71
2022-07-30T10:36:11.850Z,29.89
2022-07-30T10:38:16.426Z,29.91
2022-07-30T10:40:30.446Z,30.01
2022-07-30T10:42:48.766Z,29.87
2022-07-30T10:45:09.991Z,29.79
2022-07-30T10:47:24.686Z,29.73
2022-07-30T10:49:40.368Z,29.76
2022-07-30T10:51:46.589Z,30.04
2022-07-30T10:53:49.848Z,30.24
2022-07-30T10:56:12.205Z,30.39
2022-07-30T10:58:18.027Z,30.30
2022-07-30T11:00:26.948Z,29.99
2022-07-30T11:02:31.310Z,29.88
2022-07-30T11:04:36.855Z,29.93
2022-07-30T11:06:40.352Z,29.78
2022-07-30T11:08:45.056Z,29.54
2022-07-30T11:10:51.164Z,29.37
2022-07-30T11:12:55.621Z,29.38
2022-07-30T11:15:06.160Z,29.35
2022-07-30T11:17:10.555Z,29.52
2022-07-30T11:19:56.707Z,29.64
2022-07-30T11:21:42.404Z,29.46
2022-07-30T11:23:53.374Z,29.35
2022-07-30T11:25:58.429Z,29.52
2022-07-30T11:28:02.032Z,29.45
2022-07-30T11:30:08.193Z,29.33
2022-07-30T11:32:26.087Z,29.10
2022-07-30T11:34:30.675Z,28.83
2022-07-30T11:36:34.325Z,28.69
2022-07-30T11:39:00.084Z,28.62
2022-07-30T11:41:10.901Z,28.60
2022-07-30T11:43:34.556Z,28.65
2022-07-30T11:45:39.596Z,28.86
2022-07-30T11:47:43.162Z,28.98
2022-07-30T11:49:47.153Z,28.87
2022-07-30T11:51:51.016Z,28.69
2022-07-30T11:54:07.257Z,28.54
2022-07-30T11:56:10.437Z,28.51
2022-07-30T11:58:27.074Z,28.67
2022-07-30T12:00:36.648Z,28.60
2022-07-30T12:02:40.298Z,28.59
2022-07-30T12:04:44.700Z,28.60
2022-07-30T12:06:49.301Z,28.76
2022-07-30T12:08:58.556Z,28.92
2022-07-30T12:11:03.316Z,29.14
2022-07-30T12:13:11.383Z,29.38
2022-07-30T12:15:30.659Z,29.60
2022-07-30T12:17:42.574Z,29.63
2022-07-30T12:19:47.807Z,29.54
2022-07-30T12:21:53.547Z,29.61
2022-07-30T12:23:58.511Z,29.78
2022-07-30T12:26:03.270Z,29.94
2022-07-30T12:28:06.407Z,30.05
2022-07-30T12:30:10.331Z,29.99
2022-07-30T12:32:13.463Z,29.96
2022-07-30T12:34:23.713Z,30.06
2022-07-30T12:36:29.407Z,30.14
2022-07-30T12:38:44.766Z,30.08
2022-07-30T12:40:58.754Z,30.04
2022-07-30T12:43:03.218Z,30.14
2022-07-30T12:45:07.651Z,30.26
2022-07-30T12:47:21.664Z,30.30
2022-07-30T12:49:37.723Z,30.31
2022-07-30T12:52:00.354Z,30.27
2022-07-30T12:54:16.315Z,30.09
2022-07-30T12:56:24.103Z,29.95
2022-07-30T12:58:37.561Z,29.85
2022-07-30T13:00:52.134Z,29.96
2022-07-30T13:02:56.125Z,30.02
2022-07-30T13:05:10.813Z,30.15
2022-07-30T13:07:16.761Z,30.14
2022-07-30T13:09:21.035Z,30.12
2022-07-30T13:11:26.278Z,30.27
2022-07-30T13:13:32.759Z,30.31
2022-07-30T13:15:35.826Z,30.32
2022-07-30T13:17:40.427Z,30.32
2022-07-30T13:19:43.620Z,30.23
2022-07-30T13:21:49.758Z,30.21
2022-07-30T13:23:53.330Z,30.20
2022-07-30T13:25:56.838Z,30.05
2022-07-30T13:28:00.008Z,29.94
2022-07-30T13:30:05.254Z,29.96
2022-07-30T13:32:08.648Z,30.07
2022-07-30T13:34:12.133Z,30.16
2022-07-30T13:36:15.378Z,30.20
2022-07-30T13:38:18.847Z,30.14
2022-07-30T13:40:22.064Z,30.10
2022-07-30T13:42:25.306Z,30.11
2022-07-30T13:44:28.379Z,30.03
2022-07-30T13:46:33.509Z,29.90
2022-07-30T13:48:36.795Z,29.87
2022-07-30T13:50:40.141Z,29.83
2022-07-30T13:52:43.172Z,29.78
2022-07-30T13:54:46.595Z,29.72
2022-07-30T13:56:49.719Z,29.73
2022-07-30T13:58:52.797Z,29.89
2022-07-30T14:00:55.947Z,30.00
2022-07-30T14:03:01.404Z,30.06
2022-07-30T14:05:07.067Z,29.98
2022-07-30T14:07:10.415Z,30.07
2022-07-30T14:09:13.662Z,30.15
2022-07-30T14:11:17.824Z,30.29
2022-07-30T14:13:21.543Z,30.40
2022-07-30T14:15:26.305Z,30.47
2022-07-30T14:17:29.557Z,30.50
2022-07-30T14:19:33.998Z,30.50
2022-07-30T14:21:37.092Z,30.52
2022-07-30T14:23:40.140Z,30.48
2022-07-30T14:25:44.240Z,30.50
2022-07-30T14:27:48.177Z,30.46
2022-07-30T14:29:51.510Z,30.44
2022-07-30T14:31:54.598Z,30.39
2022-07-30T14:33:57.711Z,30.33
2022-07-30T14:36:02.138Z,30.27
2022-07-30T14:38:05.848Z,30.18
2022-07-30T14:40:11.728Z,30.11
2022-07-30T14:42:14.913Z,30.01
2022-07-30T14:44:18.001Z,29.88
2022-07-30T14:46:21.075Z,29.79
2022-07-30T14:48:24.153Z,29.75
2022-07-30T14:50:27.171Z,29.74
2022-07-30T14:52:34.906Z,29.70
2022-07-30T14:54:37.967Z,29.77
2022-07-30T14:56:41.079Z,29.83
2022-07-30T14:58:45.755Z,29.76
2022-07-30T15:00:49.232Z,29.71
2022-07-30T15:02:52.396Z,29.69
2022-07-30T15:04:55.644Z,29.69
2022-07-30T15:06:58.783Z,29.72
2022-07-30T15:09:03.541Z,29.58
2022-07-30T15:11:08.208Z,29.53
2022-07-30T15:13:12.825Z,29.45
2022-07-30T15:15:17.565Z,29.40
2022-07-30T15:17:20.805Z,29.35
2022-07-30T15:19:24.235Z,29.26
2022-07-30T15:21:27.370Z,29.21
2022-07-30T15:23:30.516Z,29.10
2022-07-30T15:25:34.968Z,29.04
2022-07-30T15:27:39.426Z,29.01
2022-07-30T15:29:42.794Z,29.02
2022-07-30T15:31:45.904Z,29.10
2022-07-30T15:33:49.665Z,29.18
2022-07-30T15:35:52.820Z,29.24
2022-07-30T15:37:55.909Z,29.29
2022-07-30T15:39:59.154Z,29.32
2022-07-30T15:42:06.061Z,29.21
2022-07-30T15:44:09.656Z,29.16
2022-07-30T15:46:12.652Z,29.12
2022-07-30T15:48:15.741Z,29.16
2022-07-30T15:50:28.391Z,29.21
2022-07-30T15:52:31.474Z,29.26
2022-07-30T15:54:34.711Z,29.26
2022-07-30T15:56:37.821Z,29.18
2022-07-30T15:58:43.625Z,29.17
2022-07-30T16:00:47.152Z,29.21
2022-07-30T16:02:51.108Z,29.25
2022-07-30T16:04:54.212Z,29.21
2022-07-30T16:06:58.078Z,29.21
2022-07-30T16:09:01.315Z,29.21
2022-07-30T16:11:05.307Z,29.20
2022-07-30T16:13:08.588Z,29.15
2022-07-30T16:15:13.460Z,29.08
2022-07-30T16:17:19.688Z,29.00
2022-07-30T16:19:22.918Z,28.90
2022-07-30T16:21:26.023Z,28.78
2022-07-30T16:23:36.663Z,28.69
2022-07-30T16:25:40.132Z,28.63
2022-07-30T16:27:43.606Z,28.68
2022-07-30T16:29:46.704Z,28.72
2022-07-30T16:31:51.202Z,28.81
2022-07-30T16:33:54.302Z,28.84
2022-07-30T16:35:57.355Z,28.92
2022-07-30T16:38:02.737Z,29.02
2022-07-30T16:40:07.011Z,29.08
2022-07-30T16:42:11.526Z,29.09
2022-07-30T16:44:14.746Z,29.09
2022-07-30T16:46:19.041Z,29.10
2022-07-30T16:48:24.022Z,29.04
2022-07-30T16:50:27.181Z,28.96
2022-07-30T16:52:30.335Z,28.93
2022-07-30T16:54:33.398Z,28.92
2022-07-30T16:56:36.535Z,28.97
2022-07-30T16:58:39.566Z,28.98
2022-07-30T17:00:42.817Z,28.99
2022-07-30T17:02:46.053Z,29.00
2022-07-30T17:04:50.477Z,28.98
2022-07-30T17:06:53.563Z,28.98
2022-07-30T17:08:56.672Z,28.94
2022-07-30T17:11:00.330Z,28.92
2022-07-30T17:13:03.814Z,28.91
2022-07-30T17:15:07.901Z,28.90
2022-07-30T17:17:14.399Z,28.88
2022-07-30T17:19:17.812Z,28.84
2022-07-30T17:21:23.028Z,28.82
2022-07-30T17:23:26.240Z,28.77
2022-07-30T17:25:29.291Z,28.77
2022-07-30T17:27:33.297Z,28.76
2022-07-30T17:29:50.326Z,28.76
2022-07-30T17:31:55.616Z,28.72
2022-07-30T17:33:58.873Z,28.68
2022-07-30T17:36:02.122Z,28.64
2022-07-30T17:38:07.256Z,28.64
2022-07-30T17:40:28.543Z,28.63
2022-07-30T17:42:34.801Z,28.61
2022-07-30T17:44:37.932Z,28.58
2022-07-30T17:46:41.079Z,28.55
2022-07-30T17:48:44.445Z,28.48
2022-07-30T17:50:48.095Z,28.41
2022-07-30T17:52:51.158Z,28.36
2022-07-30T17:54:55.730Z,28.29
2022-07-30T17:56:58.886Z,28.22
2022-07-30T17:59:01.993Z,28.14
2022-07-30T18:01:05.696Z,28.02
2022-07-30T18:03:08.868Z,27.96
2022-07-30T18:05:15.402Z,27.89
2022-07-30T18:07:18.550Z,27.87
2022-07-30T18:09:21.665Z,27.84
2022-07-30T18:11:26.185Z,27.78
2022-07-30T18:13:29.932Z,27.77
2022-07-30T18:15:36.005Z,27.73
2022-07-30T18:17:39.357Z,27.69
2022-07-30T18:19:42.523Z,27.67
2022-07-30T18:21:45.707Z,27.64
2022-07-30T18:23:49.475Z,27.62
2022-07-30T18:25:54.452Z,27.60
2022-07-30T18:27:59.122Z,27.57
2022-07-30T18:30:02.289Z,27.52
2022-07-30T18:32:06.366Z,27.51
2022-07-30T18:34:09.675Z,27.48
2022-07-30T18:36:12.767Z,27.46
2022-07-30T18:38:16.380Z,27.41
2022-07-30T18:40:23.881Z,27.38
2022-07-30T18:42:27.034Z,27.32
2022-07-30T18:44:31.588Z,27.27
2022-07-30T18:46:34.845Z,27.25
2022-07-30T18:48:37.936Z,27.21
2022-07-30T18:50:41.527Z,27.16
2022-07-30T18:52:46.811Z,27.12
2022-07-30T18:54:51.076Z,27.10
2022-07-30T18:56:56.759Z,27.04
2022-07-30T18:59:02.700Z,26.99
2022-07-30T19:01:08.077Z,26.92
2022-07-30T19:03:17.422Z,26.86
2022-07-30T19:05:24.264Z,26.79
2022-07-30T19:07:27.351Z,26.73
2022-07-30T19:09:30.476Z,26.65
2022-07-30T19:11:33.585Z,26.59
2022-07-30T19:13:39.641Z,26.52
2022-07-30T19:15:42.761Z,26.45
2022-07-30T19:17:48.754Z,26.38
2022-07-30T19:19:52.172Z,26.28
2022-07-30T19:21:55.227Z,26.21
2022-07-30T19:23:58.475Z,26.14
2022-07-30T19:26:01.728Z,26.06
2022-07-30T19:28:05.790Z,25.92
2022-07-30T19:30:10.267Z,25.81
2022-07-30T19:32:13.511Z,25.74
2022-07-30T19:34:17.998Z,25.67
2022-07-30T19:36:21.634Z,25.63
2022-07-30T19:38:24.695Z,25.60
2022-07-30T19:40:27.884Z,25.58
2022-07-30T19:42:31.033Z,25.53
2022-07-30T19:44:40.433Z,25.46
2022-07-30T19:46:44.468Z,25.40
2022-07-30T19:48:47.998Z,25.33
2022-07-30T19:50:58.185Z,25.27
2022-07-30T19:53:01.897Z,25.19
2022-07-30T19:55:16.879Z,25.14
2022-07-30T19:57:53.208Z,25.09
2022-07-30T20:00:00.224Z,25.03
2022-07-30T20:02:15.656Z,24.97
2022-07-30T20:04:18.893Z,24.92
2022-07-30T20:06:23.929Z,24.89
2022-07-30T20:08:27.196Z,24.85
2022-07-30T20:10:30.337Z,24.79
2022-07-30T20:12:34.414Z,24.75
2022-07-30T20:14:37.785Z,24.70
2022-07-30T20:16:47.593Z,24.65
2022-07-30T20:18:51.535Z,24.58
2022-07-30T20:20:55.663Z,24.50
2022-07-30T20:23:02.144Z,24.44
2022-07-30T20:25:07.039Z,24.36
2022-07-30T20:27:35.802Z,24.30
2022-07-30T20:29:34.285Z,24.23
2022-07-30T20:31:37.654Z,24.15
2022-07-30T20:33:41.177Z,24.08
2022-07-30T20:35:45.220Z,24.02
2022-07-30T20:37:55.724Z,23.97
2022-07-30T20:40:14.775Z,23.89
2022-07-30T20:42:18.645Z,23.81
2022-07-30T20:44:24.944Z,23.73
2022-07-30T20:46:28.213Z,23.67
2022-07-30T20:48:34.811Z,23.61
2022-07-30T20:50:39.767Z,23.54
2022-07-30T20:52:44.926Z,23.46
2022-07-30T20:54:49.961Z,23.41
2022-07-30T20:56:54.427Z,23.34
2022-07-30T20:58:57.926Z,23.29
2022-07-30T21:01:03.919Z,23.24
2022-07-30T21:03:13.774Z,23.15
2022-07-30T21:05:19.806Z,23.07
2022-07-30T21:07:23.301Z,22.99
2022-07-30T21:09:49.762Z,22.91
2022-07-30T21:11:57.215Z,22.85
2022-07-30T21:14:03.255Z,22.79
2022-07-30T21:16:15.484Z,22.71
2022-07-30T21:18:19.576Z,22.59
2022-07-30T21:20:27.903Z,22.53
2022-07-30T21:22:31.389Z,22.50
2022-07-30T21:24:34.655Z,22.46
2022-07-30T21:26:38.901Z,22.43
2022-07-30T21:28:43.911Z,22.40
2022-07-30T21:30:47.044Z,22.37
2022-07-30T21:32:50.150Z,22.34
2022-07-30T21:34:54.523Z,22.29
2022-07-30T21:36:57.635Z,22.24
2022-07-30T21:39:01.751Z,22.20
2022-07-30T21:41:05.750Z,22.15
2022-07-30T21:43:14.053Z,22.13
2022-07-30T21:45:38.017Z,22.03
2022-07-30T21:47:47.618Z,21.91
2022-07-30T21:49:51.179Z,21.82
2022-07-30T21:51:56.344Z,21.76
2022-07-30T21:53:59.491Z,21.72
2022-07-30T21:56:02.953Z,21.60
2022-07-30T21:58:08.745Z,21.52
2022-07-30T22:00:44.589Z,21.38
2022-07-30T22:02:52.957Z,21.27
2022-07-30T22:04:56.919Z,21.19
2022-07-30T22:07:02.517Z,21.11
2022-07-30T22:09:19.548Z,21.08
2022-07-30T22:11:42.187Z,21.03
2022-07-30T22:13:53.675Z,21.02
2022-07-30T22:15:59.031Z,20.98
2022-07-30T22:18:02.151Z,20.97
2022-07-30T22:20:08.450Z,20.96
2022-07-30T22:22:25.981Z,20.95
2022-07-30T22:24:31.339Z,20.91
2022-07-30T22:26:34.842Z,20.86
2022-07-30T22:28:39.094Z,20.80
2022-07-30T22:30:42.458Z,20.80
2022-07-30T22:32:48.833Z,20.78
2022-07-30T22:34:52.834Z,20.75
2022-07-30T22:36:57.599Z,20.73
2022-07-30T22:39:00.809Z,20.73
2022-07-30T22:41:04.162Z,20.74
2022-07-30T22:43:09.739Z,20.73
2022-07-30T22:45:15.814Z,20.71
2022-07-30T22:47:21.394Z,20.70
2022-07-30T22:49:45.875Z,20.66
2022-07-30T22:52:04.872Z,20.62
2022-07-30T22:54:16.405Z,20.57
2022-07-30T22:56:23.876Z,20.54
2022-07-30T22:58:28.703Z,20.51
2022-07-30T23:00:33.000Z,20.51
2022-07-30T23:02:36.366Z,20.47
2022-07-30T23:04:39.585Z,20.43
2022-07-30T23:06:45.113Z,20.37
2022-07-30T23:08:50.644Z,20.33
2022-07-30T23:10:53.739Z,20.31
2022-07-30T23:12:57.347Z,20.30
2022-07-30T23:15:00.587Z,20.28
2022-07-30T23:17:04.010Z,20.24
2022-07-30T23:19:07.708Z,20.24
2022-07-30T23:21:10.977Z,20.21
2022-07-30T23:23:15.530Z,20.15
2022-07-30T23:25:18.891Z,20.12
2022-07-30T23:27:21.969Z,20.05
2022-07-30T23:29:25.083Z,19.98
2022-07-30T23:31:28.307Z,19.95
2022-07-30T23:33:31.635Z,19.93
2022-07-30T23:35:34.925Z,19.91
2022-07-30T23:37:48.253Z,19.89
2022-07-30T23:39:54.037Z,19.87
2022-07-30T23:41:57.242Z,19.84
2022-07-30T23:44:00.365Z,19.80
2022-07-30T23:46:04.022Z,19.78
2022-07-30T23:48:13.140Z,19.73
2022-07-30T23:50:18.646Z,19.68
2022-07-30T23:52:21.785Z,19.65
2022-07-30T23:54:24.777Z,19.59
2022-07-30T23:56:29.443Z,19.56
2022-07-30T23:58:32.559Z,19.52
